createdAt,value
2023-07-02T00:17:40.353Z,83.92
2023-07-02T00:18:27.693Z,82.23
2023-07-02T00:19:27.896Z,82.18
2023-07-02T00:20:27.983Z,81.88
2023-07-02T00:21:28.195Z,81.83
2023-07-02T00:25:36.157Z,83.97
2023-07-02T00:26:36.182Z,82.14
2023-07-02T00:27:35.557Z,81.98
2023-07-02T00:28:35.470Z,82.33
2023-07-02T00:29:35.451Z,82.33
2023-07-02T00:30:35.421Z,82.30
2023-07-02T00:31:35.418Z,81.85
2023-07-02T00:32:36.156Z,82.25
2023-07-02T00:33:35.412Z,82.51
2023-07-02T00:34:35.408Z,82.54
2023-07-02T00:35:35.691Z,82.44
2023-07-02T00:36:35.383Z,82.72
2023-07-02T00:37:35.323Z,83.01
2023-07-02T00:38:35.434Z,83.19
2023-07-02T00:39:35.362Z,83.35
2023-07-02T00:40:35.358Z,83.24
2023-07-02T00:41:35.770Z,83.52
2023-07-02T00:43:55.092Z,83.66
2023-07-02T00:44:55.248Z,83.26
2023-07-02T01:04:49.090Z,88.35
2023-07-02T01:32:23.502Z,87.96
2023-07-02T01:33:23.078Z,87.59
2023-07-02T01:34:23.036Z,87.52
2023-07-02T01:35:23.439Z,86.88
2023-07-02T01:36:23.044Z,86.85
2023-07-02T01:37:23.002Z,86.75
2023-07-02T01:38:22.949Z,86.47
2023-07-02T01:39:22.941Z,86.75
2023-07-02T01:40:23.666Z,86.86
2023-07-02T01:41:23.000Z,87.03
2023-07-02T01:42:22.985Z,86.81
2023-07-02T01:43:22.970Z,86.90
2023-07-02T01:44:22.984Z,86.96
2023-07-02T01:45:23.627Z,87.05
2023-07-02T01:46:23.014Z,86.99
2023-07-02T01:47:23.003Z,87.04
2023-07-02T01:48:22.912Z,87.33
2023-07-02T01:49:22.928Z,87.04
2023-07-02T01:50:23.028Z,87.39
2023-07-02T01:51:22.935Z,87.32
2023-07-02T01:52:22.910Z,87.25
2023-07-02T01:53:22.952Z,87.56
2023-07-02T01:54:23.370Z,87.36
2023-07-02T01:55:22.858Z,87.35
2023-07-02T01:56:22.862Z,87.70
2023-07-02T01:57:22.928Z,87.52
2023-07-02T01:58:22.871Z,87.66
2023-07-02T01:59:22.838Z,87.54
2023-07-02T02:00:22.899Z,87.45
2023-07-02T02:01:22.879Z,87.49
2023-07-02T02:02:23.801Z,87.28
2023-07-02T02:03:22.918Z,87.27
2023-07-02T02:04:22.872Z,87.31
2023-07-02T02:05:22.835Z,87.13
2023-07-02T02:06:22.842Z,87.23
2023-07-02T02:07:22.746Z,87.31
2023-07-02T02:08:22.760Z,87.08
2023-07-02T02:09:22.777Z,87.11
2023-07-02T02:10:22.768Z,87.38
2023-07-02T02:11:23.278Z,87.25
2023-07-02T02:12:22.770Z,87.44
2023-07-02T02:13:22.800Z,87.46
2023-07-02T02:14:22.777Z,87.68
2023-07-02T02:15:22.704Z,86.95
2023-07-02T02:16:23.013Z,86.69
2023-07-02T02:17:22.862Z,86.55
2023-07-02T02:18:22.703Z,86.99
2023-07-02T02:19:22.831Z,87.01
2023-07-02T02:20:22.708Z,87.01
2023-07-02T02:21:22.709Z,87.15
2023-07-02T02:22:22.758Z,87.24
2023-07-02T02:23:22.739Z,86.84
2023-07-02T02:24:22.746Z,86.75
2023-07-02T02:25:22.669Z,86.67
2023-07-02T02:26:22.683Z,86.46
2023-07-02T02:27:22.673Z,86.58
2023-07-02T02:28:22.682Z,86.66
2023-07-02T02:29:22.712Z,86.83
2023-07-02T02:30:22.709Z,86.96
2023-07-02T02:31:22.747Z,86.94
2023-07-02T02:32:22.660Z,86.91
2023-07-02T02:33:22.620Z,86.80
2023-07-02T02:34:22.625Z,86.98
2023-07-02T02:35:22.658Z,86.94
2023-07-02T02:36:23.840Z,86.75
2023-07-02T02:37:22.609Z,86.68
2023-07-02T02:38:22.626Z,86.79
2023-07-02T02:39:22.568Z,87.03
2023-07-02T02:40:22.564Z,86.89
2023-07-02T02:41:22.572Z,86.83
2023-07-02T02:42:22.575Z,86.69
2023-07-02T02:43:22.593Z,86.61
2023-07-02T02:44:22.510Z,86.35
2023-07-02T02:45:22.562Z,86.29
2023-07-02T02:46:22.666Z,86.31
2023-07-02T02:47:22.738Z,86.35
2023-07-02T02:48:22.705Z,86.67
2023-07-02T02:49:22.819Z,86.34
2023-07-02T02:50:22.825Z,86.29
2023-07-02T02:51:22.912Z,86.56
2023-07-02T02:52:22.921Z,86.60
2023-07-02T02:53:23.649Z,86.34
2023-07-02T02:54:23.059Z,86.33
2023-07-02T02:55:23.175Z,86.44
2023-07-02T02:56:23.194Z,86.41
2023-07-02T02:57:23.173Z,86.59
2023-07-02T02:58:23.218Z,86.52
2023-07-02T02:59:23.306Z,86.59
2023-07-02T03:00:23.347Z,86.68
2023-07-02T03:01:23.423Z,86.75
2023-07-02T03:02:23.593Z,86.71
2023-07-02T03:03:24.310Z,86.75
2023-07-02T03:04:23.576Z,86.41
2023-07-02T03:05:23.529Z,86.22
2023-07-02T03:06:23.530Z,86.26
2023-07-02T03:07:23.659Z,86.22
2023-07-02T03:08:23.602Z,86.16
2023-07-02T03:09:23.632Z,86.15
2023-07-02T03:10:23.866Z,86.19
2023-07-02T03:11:23.725Z,86.30
2023-07-02T03:12:25.940Z,86.38
2023-07-02T03:13:23.731Z,86.14
2023-07-02T03:32:31.864Z,89.82
2023-07-02T03:33:35.388Z,88.02
2023-07-02T03:34:35.308Z,87.45
2023-07-02T03:35:35.311Z,86.91
2023-07-02T03:36:36.121Z,86.94
2023-07-02T03:37:35.451Z,86.75
2023-07-02T03:38:35.622Z,86.75
2023-07-02T03:39:35.341Z,86.70
2023-07-02T03:40:35.691Z,86.70
2023-07-02T03:41:35.397Z,86.64
2023-07-02T03:42:35.257Z,86.54
2023-07-02T03:43:35.269Z,86.30
2023-07-02T04:03:22.223Z,87.90
2023-07-02T04:04:22.153Z,87.41
2023-07-02T04:05:22.304Z,87.24
2023-07-02T04:06:22.654Z,87.28
2023-07-02T04:07:22.018Z,87.35
2023-07-02T04:08:22.053Z,87.15
2023-07-02T04:09:22.033Z,87.01
2023-07-02T04:10:21.962Z,86.75
2023-07-02T04:11:21.949Z,86.65
2023-07-02T04:12:21.983Z,86.64
2023-07-02T04:13:21.945Z,86.72
2023-07-02T04:14:21.906Z,86.80
2023-07-02T04:15:21.927Z,86.75
2023-07-02T04:16:22.018Z,86.76
2023-07-02T04:17:21.937Z,86.77
2023-07-02T04:18:21.876Z,86.79
2023-07-02T04:19:21.942Z,86.82
2023-07-02T04:20:21.896Z,86.62
2023-07-02T04:21:21.849Z,86.50
2023-07-02T04:22:21.860Z,86.43
2023-07-02T04:23:21.956Z,86.27
2023-07-02T04:24:21.861Z,86.05
2023-07-02T04:25:29.584Z,86.00
2023-07-02T04:26:51.224Z,85.63
2023-07-02T04:27:49.058Z,85.67
2023-07-02T04:28:22.918Z,85.68
2023-07-02T04:29:21.820Z,85.68
2023-07-02T04:30:21.812Z,85.28
2023-07-02T04:31:21.811Z,85.39
2023-07-02T04:32:21.832Z,85.38
2023-07-02T04:33:22.455Z,85.21
2023-07-02T04:34:21.815Z,85.20
2023-07-02T04:35:21.828Z,84.97
2023-07-02T04:36:21.842Z,85.01
2023-07-02T04:37:21.956Z,84.90
2023-07-02T04:38:21.943Z,84.55
2023-07-02T04:39:21.788Z,84.70
2023-07-02T04:40:21.758Z,84.80
2023-07-02T04:41:21.735Z,84.18
2023-07-02T04:42:21.747Z,83.89
2023-07-02T04:43:21.845Z,83.97
2023-07-02T04:44:21.690Z,83.85
2023-07-02T04:45:21.752Z,83.72
2023-07-02T04:46:21.727Z,83.82
2023-07-02T04:47:21.712Z,83.73
2023-07-02T04:48:21.693Z,84.03
2023-07-02T04:49:21.745Z,83.88
2023-07-02T04:50:21.646Z,84.14
2023-07-02T04:51:21.668Z,84.33
2023-07-02T04:52:21.641Z,84.36
2023-07-02T04:53:21.686Z,83.99
2023-07-02T04:54:21.645Z,83.96
2023-07-02T04:55:21.630Z,83.92
2023-07-02T04:56:21.663Z,83.88
2023-07-02T05:19:13.632Z,85.07
2023-07-02T05:20:14.087Z,83.03
2023-07-02T06:00:02.653Z,84.01
2023-07-02T06:03:26.240Z,83.59
2023-07-02T06:04:25.271Z,81.58
2023-07-02T06:05:25.422Z,81.42
2023-07-02T06:06:25.535Z,81.37
2023-07-02T06:07:25.136Z,81.24
2023-07-02T06:08:25.051Z,81.12
2023-07-02T06:09:25.123Z,81.00
2023-07-02T06:10:25.163Z,80.73
2023-07-02T06:11:25.082Z,80.63
2023-07-02T06:12:25.088Z,80.68
2023-07-02T06:13:25.189Z,80.67
2023-07-02T06:14:25.681Z,80.54
2023-07-02T06:15:25.004Z,80.23
2023-07-02T06:16:25.316Z,79.95
2023-07-02T06:17:25.035Z,79.10
2023-07-02T06:18:25.136Z,78.53
2023-07-02T06:19:25.020Z,78.03
2023-07-02T06:20:25.017Z,77.43
2023-07-02T06:21:25.736Z,77.13
2023-07-02T06:22:26.900Z,77.19
2023-07-02T06:23:25.157Z,77.13
2023-07-02T06:24:25.052Z,76.78
2023-07-02T06:25:25.672Z,76.25
2023-07-02T06:26:25.178Z,75.61
2023-07-02T06:27:25.179Z,75.40
2023-07-02T06:28:25.176Z,75.03
2023-07-02T06:29:25.223Z,74.81
2023-07-02T06:30:25.195Z,74.91
2023-07-02T06:31:25.735Z,75.11
2023-07-02T06:32:25.244Z,74.74
2023-07-02T06:33:25.737Z,74.93
2023-07-02T06:34:25.758Z,74.74
2023-07-02T06:35:25.252Z,74.74
2023-07-02T06:36:25.248Z,74.69
2023-07-02T06:37:25.244Z,74.47
2023-07-02T06:38:26.268Z,74.19
2023-07-02T06:39:25.422Z,74.28
2023-07-02T06:40:25.889Z,74.17
2023-07-02T06:41:25.423Z,74.24
2023-07-02T06:42:25.288Z,74.64
2023-07-02T06:43:25.286Z,74.84
2023-07-02T06:44:25.300Z,74.91
2023-07-02T06:45:25.300Z,74.60
2023-07-02T06:46:25.355Z,74.74
2023-07-02T06:47:26.474Z,74.93
2023-07-02T06:48:25.320Z,75.28
2023-07-02T06:49:25.334Z,75.35
2023-07-02T06:50:25.443Z,75.36
2023-07-02T06:51:25.825Z,74.33
2023-07-02T06:52:25.553Z,74.51
2023-07-02T06:53:25.635Z,74.39
2023-07-02T06:54:25.613Z,73.93
2023-07-02T06:55:25.673Z,73.79
2023-07-02T06:56:25.780Z,73.34
2023-07-02T06:57:25.790Z,73.10
2023-07-02T06:58:25.802Z,72.55
2023-07-02T06:59:25.808Z,72.55
2023-07-02T07:00:25.891Z,72.51
2023-07-02T07:01:25.979Z,72.56
2023-07-02T07:02:25.982Z,72.08
2023-07-02T07:03:25.985Z,71.98
2023-07-02T07:04:26.030Z,71.97
2023-07-02T07:05:25.959Z,71.98
2023-07-02T07:06:26.067Z,71.59
2023-07-02T07:07:25.964Z,71.39
2023-07-02T07:08:26.083Z,71.03
2023-07-02T07:09:26.078Z,71.15
2023-07-02T07:10:26.182Z,70.62
2023-07-02T07:11:26.204Z,70.79
2023-07-02T07:12:26.292Z,70.30
2023-07-02T07:13:26.422Z,69.84
2023-07-02T07:14:27.267Z,69.73
2023-07-02T07:15:26.471Z,69.27
2023-07-02T07:16:26.446Z,69.44
2023-07-02T07:17:26.512Z,69.56
2023-07-02T07:18:26.786Z,69.82
2023-07-02T07:19:26.662Z,69.73
2023-07-02T07:20:26.676Z,69.55
2023-07-02T07:21:26.725Z,69.26
2023-07-02T07:22:26.784Z,68.72
2023-07-02T07:23:26.811Z,68.41
2023-07-02T07:24:26.794Z,68.17
2023-07-02T07:25:26.795Z,68.06
2023-07-02T07:26:26.811Z,67.74
2023-07-02T07:27:26.822Z,67.14
2023-07-02T07:28:26.933Z,66.62
2023-07-02T07:29:26.939Z,66.46
2023-07-02T07:30:26.943Z,66.21
2023-07-02T07:31:27.000Z,65.99
2023-07-02T07:32:27.040Z,66.37
2023-07-02T07:33:27.057Z,66.56
2023-07-02T07:40:09.856Z,66.36
2023-07-02T07:41:10.125Z,65.87
2023-07-02T07:42:10.046Z,65.39
2023-07-02T08:24:11.963Z,63.69
2023-07-02T08:25:12.675Z,62.06
2023-07-02T08:26:11.556Z,61.67
2023-07-02T08:27:11.562Z,61.20
2023-07-02T08:28:11.624Z,60.60
2023-07-02T08:29:12.235Z,60.29
2023-07-02T08:30:11.743Z,59.90
2023-07-02T08:31:11.540Z,60.01
2023-07-02T08:32:11.649Z,60.21
2023-07-02T08:41:38.726Z,61.92
2023-07-02T08:47:51.079Z,60.00
2023-07-02T08:51:28.957Z,58.38
2023-07-02T09:40:51.583Z,43.41
2023-07-02T09:46:58.738Z,43.46
2023-07-02T11:08:36.311Z,36.38
2023-07-02T11:09:36.312Z,35.02
2023-07-02T11:10:36.295Z,34.51
2023-07-02T11:11:35.816Z,35.07
2023-07-02T12:19:46.542Z,45.48
2023-07-02T12:47:18.065Z,43.89
2023-07-02T13:19:46.373Z,44.82
2023-07-02T13:37:31.957Z,47.22
2023-07-02T14:44:41.470Z,47.20
2023-07-02T15:17:37.667Z,46.62
2023-07-02T15:30:25.603Z,46.87
2023-07-02T16:01:05.808Z,47.67
2023-07-02T16:16:05.754Z,47.83
2023-07-02T16:19:57.717Z,48.98
2023-07-02T16:25:58.995Z,49.07
2023-07-02T16:31:27.079Z,47.93
2023-07-02T16:43:13.408Z,49.07
2023-07-02T17:48:13.153Z,53.06
2023-07-02T17:51:08.514Z,52.87
2023-07-02T18:16:26.394Z,54.98
2023-07-02T18:23:24.929Z,53.81
2023-07-02T18:24:25.610Z,53.57
2023-07-02T18:36:26.083Z,55.90
2023-07-02T18:37:13.411Z,55.06
2023-07-02T18:39:32.561Z,55.00
2023-07-02T20:03:41.274Z,65.47
2023-07-02T20:34:49.128Z,68.29
2023-07-02T21:22:17.562Z,71.64
2023-07-02T21:23:17.721Z,70.00
2023-07-02T21:24:16.986Z,69.90
